sensor_id;sensor_type;location;lat;lon;timestamp;temperature;humidity
21037;DHT22;10677;50.942;4.028;2023-06-19T00:01:58;20.30;99.90
21037;DHT22;10677;50.942;4.028;2023-06-19T00:04:24;20.20;99.90
21037;DHT22;10677;50.942;4.028;2023-06-19T00:06:50;20.20;99.90
21037;DHT22;10677;50.942;4.028;2023-06-19T00:09:15;20.30;99.90
21037;DHT22;10677;50.942;4.028;2023-06-19T00:11:42;20.30;99.90
21037;DHT22;10677;50.942;4.028;2023-06-19T00:14:08;20.40;99.90
21037;DHT22;10677;50.942;4.028;2023-06-19T00:16:33;20.40;99.90
21037;DHT22;10677;50.942;4.028;2023-06-19T00:18:59;20.50;99.90
21037;DHT22;10677;50.942;4.028;2023-06-19T00:21:25;20.50;99.90
21037;DHT22;10677;50.942;4.028;2023-06-19T00:23:51;20.50;99.90
21037;DHT22;10677;50.942;4.028;2023-06-19T00:26:18;20.50;99.90
21037;DHT22;10677;50.942;4.028;2023-06-19T00:28:48;20.50;99.90
21037;DHT22;10677;50.942;4.028;2023-06-19T00:31:14;20.60;99.90
21037;DHT22;10677;50.942;4.028;2023-06-19T00:33:40;20.60;99.90
21037;DHT22;10677;50.942;4.028;2023-06-19T00:36:14;20.60;99.90
21037;DHT22;10677;50.942;4.028;2023-06-19T00:38:39;20.70;99.90
21037;DHT22;10677;50.942;4.028;2023-06-19T00:41:05;20.60;99.90
21037;DHT22;10677;50.942;4.028;2023-06-19T00:43:31;20.70;99.90
21037;DHT22;10677;50.942;4.028;2023-06-19T00:46:01;20.60;99.90
21037;DHT22;10677;50.942;4.028;2023-06-19T00:48:28;20.60;99.90
21037;DHT22;10677;50.942;4.028;2023-06-19T00:50:56;20.60;99.90
21037;DHT22;10677;50.942;4.028;2023-06-19T00:53:23;20.70;99.90
21037;DHT22;10677;50.942;4.028;2023-06-19T00:55:50;20.70;99.90
21037;DHT22;10677;50.942;4.028;2023-06-19T00:58:17;20.80;99.90
21037;DHT22;10677;50.942;4.028;2023-06-19T01:00:44;20.80;99.90
21037;DHT22;10677;50.942;4.028;2023-06-19T01:03:09;20.90;99.90
21037;DHT22;10677;50.942;4.028;2023-06-19T01:05:35;20.90;99.90
21037;DHT22;10677;50.942;4.028;2023-06-19T01:10:54;20.90;99.90
21037;DHT22;10677;50.942;4.028;2023-06-19T01:15:53;20.70;99.90
21037;DHT22;10677;50.942;4.028;2023-06-19T01:18:20;20.80;99.90
21037;DHT22;10677;50.942;4.028;2023-06-19T01:20:48;20.70;99.90
21037;DHT22;10677;50.942;4.028;2023-06-19T01:23:14;20.60;99.90
21037;DHT22;10677;50.942;4.028;2023-06-19T01:25:40;20.70;99.90
21037;DHT22;10677;50.942;4.028;2023-06-19T01:28:07;20.70;99.90
21037;DHT22;10677;50.942;4.028;2023-06-19T01:30:35;20.80;99.90
21037;DHT22;10677;50.942;4.028;2023-06-19T01:33:28;20.90;99.90
21037;DHT22;10677;50.942;4.028;2023-06-19T01:35:55;20.80;99.90
21037;DHT22;10677;50.942;4.028;2023-06-19T01:38:23;20.80;99.90
21037;DHT22;10677;50.942;4.028;2023-06-19T01:40:52;20.80;99.90
21037;DHT22;10677;50.942;4.028;2023-06-19T01:43:19;20.80;99.90
21037;DHT22;10677;50.942;4.028;2023-06-19T01:45:45;20.70;99.90
21037;DHT22;10677;50.942;4.028;2023-06-19T01:48:11;20.70;99.90
21037;DHT22;10677;50.942;4.028;2023-06-19T01:50:38;20.70;99.90
21037;DHT22;10677;50.942;4.028;2023-06-19T01:53:03;20.70;99.90
21037;DHT22;10677;50.942;4.028;2023-06-19T01:55:29;20.70;99.90
21037;DHT22;10677;50.942;4.028;2023-06-19T01:57:55;20.80;99.90
21037;DHT22;10677;50.942;4.028;2023-06-19T02:00:21;20.80;99.90
21037;DHT22;10677;50.942;4.028;2023-06-19T02:02:47;20.70;99.90
21037;DHT22;10677;50.942;4.028;2023-06-19T02:05:13;20.70;99.90
21037;DHT22;10677;50.942;4.028;2023-06-19T02:07:39;20.70;99.90
21037;DHT22;10677;50.942;4.028;2023-06-19T02:10:06;20.80;99.90
21037;DHT22;10677;50.942;4.028;2023-06-19T02:12:31;20.90;99.90
21037;DHT22;10677;50.942;4.028;2023-06-19T02:14:57;20.90;99.90
21037;DHT22;10677;50.942;4.028;2023-06-19T02:17:23;20.80;99.90
21037;DHT22;10677;50.942;4.028;2023-06-19T02:19:48;20.80;99.90
21037;DHT22;10677;50.942;4.028;2023-06-19T02:22:14;20.90;99.90
21037;DHT22;10677;50.942;4.028;2023-06-19T02:24:39;20.90;99.90
21037;DHT22;10677;50.942;4.028;2023-06-19T02:27:06;20.90;99.90
21037;DHT22;10677;50.942;4.028;2023-06-19T02:29:31;20.90;99.90
21037;DHT22;10677;50.942;4.028;2023-06-19T02:31:59;20.90;99.90
21037;DHT22;10677;50.942;4.028;2023-06-19T02:34:25;20.80;99.90
21037;DHT22;10677;50.942;4.028;2023-06-19T02:36:51;20.80;99.90
21037;DHT22;10677;50.942;4.028;2023-06-19T02:39:17;20.80;99.90
21037;DHT22;10677;50.942;4.028;2023-06-19T02:41:43;20.80;99.90
21037;DHT22;10677;50.942;4.028;2023-06-19T02:44:11;20.80;99.90
21037;DHT22;10677;50.942;4.028;2023-06-19T02:46:37;20.80;99.90
21037;DHT22;10677;50.942;4.028;2023-06-19T02:49:03;20.80;99.90
21037;DHT22;10677;50.942;4.028;2023-06-19T02:51:29;20.80;99.90
21037;DHT22;10677;50.942;4.028;2023-06-19T02:53:54;20.70;99.90
21037;DHT22;10677;50.942;4.028;2023-06-19T02:56:20;20.60;99.90
21037;DHT22;10677;50.942;4.028;2023-06-19T02:58:46;20.60;99.90
21037;DHT22;10677;50.942;4.028;2023-06-19T03:01:11;20.70;99.90
21037;DHT22;10677;50.942;4.028;2023-06-19T03:03:37;20.60;99.90
21037;DHT22;10677;50.942;4.028;2023-06-19T03:06:07;20.40;99.90
21037;DHT22;10677;50.942;4.028;2023-06-19T03:08:34;20.40;99.90
21037;DHT22;10677;50.942;4.028;2023-06-19T03:11:00;20.30;99.90
21037;DHT22;10677;50.942;4.028;2023-06-19T03:13:26;20.30;99.90
21037;DHT22;10677;50.942;4.028;2023-06-19T03:15:51;20.30;99.90
21037;DHT22;10677;50.942;4.028;2023-06-19T03:18:17;20.30;99.90
21037;DHT22;10677;50.942;4.028;2023-06-19T03:20:43;20.40;99.90
21037;DHT22;10677;50.942;4.028;2023-06-19T03:23:08;20.40;99.90
21037;DHT22;10677;50.942;4.028;2023-06-19T03:25:34;20.50;99.90
21037;DHT22;10677;50.942;4.028;2023-06-19T03:28:01;20.40;99.90
21037;DHT22;10677;50.942;4.028;2023-06-19T03:30:27;20.30;99.90
21037;DHT22;10677;50.942;4.028;2023-06-19T03:32:53;20.30;99.90
21037;DHT22;10677;50.942;4.028;2023-06-19T03:35:19;20.20;99.90
21037;DHT22;10677;50.942;4.028;2023-06-19T03:37:44;20.10;99.90
21037;DHT22;10677;50.942;4.028;2023-06-19T03:40:10;20.00;99.90
21037;DHT22;10677;50.942;4.028;2023-06-19T03:42:39;20.00;99.90
21037;DHT22;10677;50.942;4.028;2023-06-19T03:45:05;20.00;99.90
21037;DHT22;10677;50.942;4.028;2023-06-19T03:47:31;19.90;99.90
21037;DHT22;10677;50.942;4.028;2023-06-19T03:49:57;19.90;99.90
21037;DHT22;10677;50.942;4.028;2023-06-19T03:52:23;19.80;99.90
21037;DHT22;10677;50.942;4.028;2023-06-19T03:54:48;19.80;99.90
21037;DHT22;10677;50.942;4.028;2023-06-19T03:57:15;19.80;99.90
21037;DHT22;10677;50.942;4.028;2023-06-19T03:59:40;19.80;99.90
21037;DHT22;10677;50.942;4.028;2023-06-19T04:02:06;19.80;99.90
21037;DHT22;10677;50.942;4.028;2023-06-19T04:04:32;19.70;99.90
21037;DHT22;10677;50.942;4.028;2023-06-19T04:06:57;19.70;99.90
21037;DHT22;10677;50.942;4.028;2023-06-19T04:09:24;19.70;99.90
21037;DHT22;10677;50.942;4.028;2023-06-19T04:11:50;19.70;99.90
21037;DHT22;10677;50.942;4.028;2023-06-19T04:14:16;19.60;99.90
21037;DHT22;10677;50.942;4.028;2023-06-19T04:16:42;19.60;99.90
21037;DHT22;10677;50.942;4.028;2023-06-19T04:19:07;19.50;99.90
21037;DHT22;10677;50.942;4.028;2023-06-19T04:21:33;19.50;99.90
21037;DHT22;10677;50.942;4.028;2023-06-19T04:23:59;19.50;99.90
21037;DHT22;10677;50.942;4.028;2023-06-19T04:26:25;19.50;99.90
21037;DHT22;10677;50.942;4.028;2023-06-19T04:28:50;19.40;99.90
21037;DHT22;10677;50.942;4.028;2023-06-19T04:31:16;19.40;99.90
21037;DHT22;10677;50.942;4.028;2023-06-19T04:33:45;19.30;99.90
21037;DHT22;10677;50.942;4.028;2023-06-19T04:36:11;19.30;99.90
21037;DHT22;10677;50.942;4.028;2023-06-19T04:38:36;19.30;99.90
21037;DHT22;10677;50.942;4.028;2023-06-19T04:41:02;19.20;99.90
21037;DHT22;10677;50.942;4.028;2023-06-19T04:43:27;19.20;99.90
21037;DHT22;10677;50.942;4.028;2023-06-19T04:45:53;19.20;99.90
21037;DHT22;10677;50.942;4.028;2023-06-19T04:48:20;19.10;99.90
21037;DHT22;10677;50.942;4.028;2023-06-19T04:50:51;19.10;99.90
21037;DHT22;10677;50.942;4.028;2023-06-19T04:53:16;19.10;99.90
21037;DHT22;10677;50.942;4.028;2023-06-19T04:55:42;19.10;99.90
21037;DHT22;10677;50.942;4.028;2023-06-19T04:58:09;19.30;99.90
21037;DHT22;10677;50.942;4.028;2023-06-19T05:00:34;19.40;99.90
21037;DHT22;10677;50.942;4.028;2023-06-19T05:03:00;19.40;99.90
21037;DHT22;10677;50.942;4.028;2023-06-19T05:05:27;19.30;99.90
21037;DHT22;10677;50.942;4.028;2023-06-19T05:07:53;19.30;99.90
21037;DHT22;10677;50.942;4.028;2023-06-19T05:10:19;19.40;99.90
21037;DHT22;10677;50.942;4.028;2023-06-19T05:12:44;19.40;99.90
21037;DHT22;10677;50.942;4.028;2023-06-19T05:15:10;19.40;99.90
21037;DHT22;10677;50.942;4.028;2023-06-19T05:17:36;19.40;99.90
21037;DHT22;10677;50.942;4.028;2023-06-19T05:20:04;19.40;99.90
21037;DHT22;10677;50.942;4.028;2023-06-19T05:22:32;19.40;99.90
21037;DHT22;10677;50.942;4.028;2023-06-19T05:24:59;19.60;99.90
21037;DHT22;10677;50.942;4.028;2023-06-19T05:27:25;19.60;99.90
21037;DHT22;10677;50.942;4.028;2023-06-19T05:29:51;19.70;99.90
21037;DHT22;10677;50.942;4.028;2023-06-19T05:32:16;19.70;99.90
21037;DHT22;10677;50.942;4.028;2023-06-19T05:34:42;19.70;99.90
21037;DHT22;10677;50.942;4.028;2023-06-19T05:37:08;19.50;99.90
21037;DHT22;10677;50.942;4.028;2023-06-19T05:39:33;19.40;99.90
21037;DHT22;10677;50.942;4.028;2023-06-19T05:41:59;19.40;99.90
21037;DHT22;10677;50.942;4.028;2023-06-19T05:44:24;19.50;99.90
21037;DHT22;10677;50.942;4.028;2023-06-19T05:46:50;19.60;99.90
21037;DHT22;10677;50.942;4.028;2023-06-19T05:49:17;19.70;99.90
21037;DHT22;10677;50.942;4.028;2023-06-19T05:51:44;19.80;99.90
21037;DHT22;10677;50.942;4.028;2023-06-19T05:54:10;19.90;99.90
21037;DHT22;10677;50.942;4.028;2023-06-19T05:56:35;20.00;99.90
21037;DHT22;10677;50.942;4.028;2023-06-19T05:59:01;20.00;99.90
21037;DHT22;10677;50.942;4.028;2023-06-19T06:01:31;19.90;99.90
21037;DHT22;10677;50.942;4.028;2023-06-19T06:03:58;20.00;99.90
21037;DHT22;10677;50.942;4.028;2023-06-19T06:06:24;20.10;99.90
21037;DHT22;10677;50.942;4.028;2023-06-19T06:08:51;20.00;99.90
21037;DHT22;10677;50.942;4.028;2023-06-19T06:11:17;19.90;99.90
21037;DHT22;10677;50.942;4.028;2023-06-19T06:13:42;20.10;99.90
21037;DHT22;10677;50.942;4.028;2023-06-19T06:16:08;20.10;99.90
21037;DHT22;10677;50.942;4.028;2023-06-19T06:18:35;20.00;99.90
21037;DHT22;10677;50.942;4.028;2023-06-19T06:21:01;20.10;99.90
21037;DHT22;10677;50.942;4.028;2023-06-19T06:23:27;20.10;99.90
21037;DHT22;10677;50.942;4.028;2023-06-19T06:25:54;20.30;99.90
21037;DHT22;10677;50.942;4.028;2023-06-19T06:28:26;20.40;99.90
21037;DHT22;10677;50.942;4.028;2023-06-19T06:30:52;20.40;99.90
21037;DHT22;10677;50.942;4.028;2023-06-19T06:33:18;20.40;99.90
21037;DHT22;10677;50.942;4.028;2023-06-19T06:35:43;20.40;99.90
21037;DHT22;10677;50.942;4.028;2023-06-19T06:38:09;20.40;99.90
21037;DHT22;10677;50.942;4.028;2023-06-19T06:40:35;20.40;99.90
21037;DHT22;10677;50.942;4.028;2023-06-19T06:43:02;20.50;99.90
21037;DHT22;10677;50.942;4.028;2023-06-19T06:45:28;20.50;99.90
21037;DHT22;10677;50.942;4.028;2023-06-19T06:47:53;20.50;99.90
21037;DHT22;10677;50.942;4.028;2023-06-19T06:50:19;20.60;99.90
21037;DHT22;10677;50.942;4.028;2023-06-19T06:52:45;20.70;99.90
21037;DHT22;10677;50.942;4.028;2023-06-19T06:55:11;20.80;99.90
21037;DHT22;10677;50.942;4.028;2023-06-19T06:57:36;21.00;99.90
21037;DHT22;10677;50.942;4.028;2023-06-19T07:00:04;21.00;99.90
21037;DHT22;10677;50.942;4.028;2023-06-19T07:02:31;20.90;99.90
21037;DHT22;10677;50.942;4.028;2023-06-19T07:04:56;21.00;99.90
21037;DHT22;10677;50.942;4.028;2023-06-19T07:07:22;20.80;99.90
21037;DHT22;10677;50.942;4.028;2023-06-19T07:09:47;20.80;99.90
21037;DHT22;10677;50.942;4.028;2023-06-19T07:12:13;21.00;99.90
21037;DHT22;10677;50.942;4.028;2023-06-19T07:14:39;21.00;99.90
21037;DHT22;10677;50.942;4.028;2023-06-19T07:17:05;21.00;99.90
21037;DHT22;10677;50.942;4.028;2023-06-19T07:19:34;21.00;99.90
21037;DHT22;10677;50.942;4.028;2023-06-19T07:21:59;21.20;99.90
21037;DHT22;10677;50.942;4.028;2023-06-19T07:24:25;21.40;99.90
21037;DHT22;10677;50.942;4.028;2023-06-19T07:26:51;21.40;99.90
21037;DHT22;10677;50.942;4.028;2023-06-19T07:29:17;21.40;99.90
21037;DHT22;10677;50.942;4.028;2023-06-19T07:31:42;21.30;99.90
21037;DHT22;10677;50.942;4.028;2023-06-19T07:34:09;21.30;99.90
21037;DHT22;10677;50.942;4.028;2023-06-19T07:36:35;21.30;99.90
21037;DHT22;10677;50.942;4.028;2023-06-19T07:39:00;21.20;99.90
21037;DHT22;10677;50.942;4.028;2023-06-19T07:41:26;21.20;99.90
21037;DHT22;10677;50.942;4.028;2023-06-19T07:43:52;21.40;99.90
21037;DHT22;10677;50.942;4.028;2023-06-19T07:46:18;21.60;99.90
21037;DHT22;10677;50.942;4.028;2023-06-19T07:48:43;21.90;99.90
21037;DHT22;10677;50.942;4.028;2023-06-19T07:51:09;22.10;99.90
21037;DHT22;10677;50.942;4.028;2023-06-19T07:53:35;22.10;99.90
21037;DHT22;10677;50.942;4.028;2023-06-19T07:56:01;22.30;99.90
21037;DHT22;10677;50.942;4.028;2023-06-19T07:58:27;22.20;99.90
21037;DHT22;10677;50.942;4.028;2023-06-19T08:00:52;22.10;99.90
21037;DHT22;10677;50.942;4.028;2023-06-19T08:03:18;22.00;99.90
21037;DHT22;10677;50.942;4.028;2023-06-19T08:05:44;21.90;99.90
21037;DHT22;10677;50.942;4.028;2023-06-19T08:08:12;22.00;99.90
21037;DHT22;10677;50.942;4.028;2023-06-19T08:10:38;22.10;99.90
21037;DHT22;10677;50.942;4.028;2023-06-19T08:13:07;22.30;99.90
21037;DHT22;10677;50.942;4.028;2023-06-19T08:15:33;22.40;99.90
21037;DHT22;10677;50.942;4.028;2023-06-19T08:17:58;22.60;99.90
21037;DHT22;10677;50.942;4.028;2023-06-19T08:20:24;22.70;99.90
21037;DHT22;10677;50.942;4.028;2023-06-19T08:22:50;22.80;99.90
21037;DHT22;10677;50.942;4.028;2023-06-19T08:25:16;22.90;99.90
21037;DHT22;10677;50.942;4.028;2023-06-19T08:27:42;22.90;99.90
21037;DHT22;10677;50.942;4.028;2023-06-19T08:30:12;22.90;99.90
21037;DHT22;10677;50.942;4.028;2023-06-19T08:32:38;23.00;99.90
21037;DHT22;10677;50.942;4.028;2023-06-19T08:35:05;23.10;99.90
21037;DHT22;10677;50.942;4.028;2023-06-19T08:37:32;23.10;99.90
21037;DHT22;10677;50.942;4.028;2023-06-19T08:39:57;23.10;99.90
21037;DHT22;10677;50.942;4.028;2023-06-19T08:42:24;23.10;99.90
21037;DHT22;10677;50.942;4.028;2023-06-19T08:44:50;23.30;99.90
21037;DHT22;10677;50.942;4.028;2023-06-19T08:47:15;23.40;99.90
21037;DHT22;10677;50.942;4.028;2023-06-19T08:49:42;23.40;99.90
21037;DHT22;10677;50.942;4.028;2023-06-19T08:52:09;23.30;99.90
21037;DHT22;10677;50.942;4.028;2023-06-19T08:54:34;23.30;99.90
21037;DHT22;10677;50.942;4.028;2023-06-19T08:57:09;23.20;99.90
21037;DHT22;10677;50.942;4.028;2023-06-19T08:59:36;23.40;99.90
21037;DHT22;10677;50.942;4.028;2023-06-19T09:02:02;23.30;99.90
21037;DHT22;10677;50.942;4.028;2023-06-19T09:04:28;23.50;99.90
21037;DHT22;10677;50.942;4.028;2023-06-19T09:06:55;23.60;99.90
21037;DHT22;10677;50.942;4.028;2023-06-19T09:09:24;23.70;99.90
21037;DHT22;10677;50.942;4.028;2023-06-19T09:11:58;23.80;99.90
21037;DHT22;10677;50.942;4.028;2023-06-19T09:14:35;24.10;99.90
21037;DHT22;10677;50.942;4.028;2023-06-19T09:17:17;24.30;99.90
21037;DHT22;10677;50.942;4.028;2023-06-19T09:19:51;24.40;99.90
21037;DHT22;10677;50.942;4.028;2023-06-19T09:22:18;24.30;99.90
21037;DHT22;10677;50.942;4.028;2023-06-19T09:24:44;24.30;99.90
21037;DHT22;10677;50.942;4.028;2023-06-19T09:27:15;24.40;99.90
21037;DHT22;10677;50.942;4.028;2023-06-19T09:29:45;24.50;99.90
21037;DHT22;10677;50.942;4.028;2023-06-19T09:32:19;24.60;99.90
21037;DHT22;10677;50.942;4.028;2023-06-19T09:34:46;24.50;99.90
21037;DHT22;10677;50.942;4.028;2023-06-19T09:37:13;24.50;99.90
21037;DHT22;10677;50.942;4.028;2023-06-19T09:39:39;24.50;99.90
21037;DHT22;10677;50.942;4.028;2023-06-19T09:42:09;24.60;99.90
21037;DHT22;10677;50.942;4.028;2023-06-19T09:44:42;24.70;99.90
21037;DHT22;10677;50.942;4.028;2023-06-19T09:47:17;24.90;99.90
21037;DHT22;10677;50.942;4.028;2023-06-19T09:49:49;24.80;99.90
21037;DHT22;10677;50.942;4.028;2023-06-19T09:52:16;24.80;99.90
21037;DHT22;10677;50.942;4.028;2023-06-19T09:54:43;24.80;99.90
21037;DHT22;10677;50.942;4.028;2023-06-19T09:57:11;24.80;99.90
21037;DHT22;10677;50.942;4.028;2023-06-19T09:59:40;24.60;99.90
21037;DHT22;10677;50.942;4.028;2023-06-19T10:02:09;24.50;99.90
21037;DHT22;10677;50.942;4.028;2023-06-19T10:04:46;24.20;99.90
21037;DHT22;10677;50.942;4.028;2023-06-19T10:07:18;24.20;99.90
21037;DHT22;10677;50.942;4.028;2023-06-19T10:12:39;24.30;99.90
21037;DHT22;10677;50.942;4.028;2023-06-19T10:15:25;24.50;99.90
21037;DHT22;10677;50.942;4.028;2023-06-19T10:18:00;24.70;99.90
21037;DHT22;10677;50.942;4.028;2023-06-19T10:20:32;24.60;99.90
21037;DHT22;10677;50.942;4.028;2023-06-19T10:23:06;24.70;99.90
21037;DHT22;10677;50.942;4.028;2023-06-19T10:25:34;24.80;99.90
21037;DHT22;10677;50.942;4.028;2023-06-19T10:28:02;24.90;99.90
21037;DHT22;10677;50.942;4.028;2023-06-19T10:30:31;25.00;99.90
21037;DHT22;10677;50.942;4.028;2023-06-19T10:32:57;25.30;99.90
21037;DHT22;10677;50.942;4.028;2023-06-19T10:35:23;25.30;99.90
21037;DHT22;10677;50.942;4.028;2023-06-19T10:37:50;25.30;99.90
21037;DHT22;10677;50.942;4.028;2023-06-19T10:40:17;25.30;99.90
21037;DHT22;10677;50.942;4.028;2023-06-19T10:42:43;25.20;99.90
21037;DHT22;10677;50.942;4.028;2023-06-19T10:45:11;25.10;99.90
21037;DHT22;10677;50.942;4.028;2023-06-19T10:47:42;24.90;99.90
21037;DHT22;10677;50.942;4.028;2023-06-19T10:50:12;25.10;99.90
21037;DHT22;10677;50.942;4.028;2023-06-19T10:52:43;25.30;99.90
21037;DHT22;10677;50.942;4.028;2023-06-19T10:55:09;25.50;99.90
21037;DHT22;10677;50.942;4.028;2023-06-19T10:57:36;25.40;99.90
21037;DHT22;10677;50.942;4.028;2023-06-19T11:00:03;25.40;99.90
21037;DHT22;10677;50.942;4.028;2023-06-19T11:02:37;25.10;99.90
21037;DHT22;10677;50.942;4.028;2023-06-19T11:05:05;25.20;99.90
21037;DHT22;10677;50.942;4.028;2023-06-19T11:07:32;25.20;99.90
21037;DHT22;10677;50.942;4.028;2023-06-19T11:09:58;25.10;99.90
21037;DHT22;10677;50.942;4.028;2023-06-19T11:12:24;25.20;99.90
21037;DHT22;10677;50.942;4.028;2023-06-19T11:14:50;25.30;99.90
21037;DHT22;10677;50.942;4.028;2023-06-19T11:17:17;25.30;99.90
21037;DHT22;10677;50.942;4.028;2023-06-19T11:19:47;25.30;99.90
21037;DHT22;10677;50.942;4.028;2023-06-19T11:22:13;25.20;99.90
21037;DHT22;10677;50.942;4.028;2023-06-19T11:24:45;25.30;99.90
21037;DHT22;10677;50.942;4.028;2023-06-19T11:27:22;25.40;99.90
21037;DHT22;10677;50.942;4.028;2023-06-19T11:29:57;25.50;99.90
21037;DHT22;10677;50.942;4.028;2023-06-19T11:32:33;25.50;99.90
21037;DHT22;10677;50.942;4.028;2023-06-19T11:35:05;25.40;99.90
21037;DHT22;10677;50.942;4.028;2023-06-19T11:37:33;25.40;99.90
21037;DHT22;10677;50.942;4.028;2023-06-19T11:40:00;25.50;99.90
21037;DHT22;10677;50.942;4.028;2023-06-19T11:42:26;25.80;99.90
21037;DHT22;10677;50.942;4.028;2023-06-19T11:45:04;25.90;99.90
21037;DHT22;10677;50.942;4.028;2023-06-19T11:47:32;26.10;99.90
21037;DHT22;10677;50.942;4.028;2023-06-19T11:49:59;26.30;99.90
21037;DHT22;10677;50.942;4.028;2023-06-19T11:52:25;26.50;99.90
21037;DHT22;10677;50.942;4.028;2023-06-19T11:54:50;26.60;99.90
21037;DHT22;10677;50.942;4.028;2023-06-19T11:57:16;26.40;99.90
21037;DHT22;10677;50.942;4.028;2023-06-19T11:59:42;26.40;99.90
21037;DHT22;10677;50.942;4.028;2023-06-19T12:02:08;26.60;99.90
21037;DHT22;10677;50.942;4.028;2023-06-19T12:04:34;26.80;99.90
21037;DHT22;10677;50.942;4.028;2023-06-19T12:07:00;26.90;99.90
21037;DHT22;10677;50.942;4.028;2023-06-19T12:09:26;27.00;99.90
21037;DHT22;10677;50.942;4.028;2023-06-19T12:11:53;27.00;99.90
21037;DHT22;10677;50.942;4.028;2023-06-19T12:14:19;27.10;99.90
21037;DHT22;10677;50.942;4.028;2023-06-19T12:16:48;27.30;99.90
21037;DHT22;10677;50.942;4.028;2023-06-19T12:19:14;27.50;99.90
21037;DHT22;10677;50.942;4.028;2023-06-19T12:21:51;27.30;99.90
21037;DHT22;10677;50.942;4.028;2023-06-19T12:24:17;27.20;99.90
21037;DHT22;10677;50.942;4.028;2023-06-19T12:26:43;27.10;99.90
21037;DHT22;10677;50.942;4.028;2023-06-19T12:29:08;27.10;99.90
21037;DHT22;10677;50.942;4.028;2023-06-19T12:31:34;27.20;99.90
21037;DHT22;10677;50.942;4.028;2023-06-19T12:34:02;27.30;99.90
21037;DHT22;10677;50.942;4.028;2023-06-19T12:36:28;27.40;99.90
21037;DHT22;10677;50.942;4.028;2023-06-19T12:38:54;27.50;99.90
21037;DHT22;10677;50.942;4.028;2023-06-19T12:41:20;27.60;99.90
21037;DHT22;10677;50.942;4.028;2023-06-19T12:43:46;27.80;99.90
21037;DHT22;10677;50.942;4.028;2023-06-19T12:46:12;27.90;99.90
21037;DHT22;10677;50.942;4.028;2023-06-19T12:48:38;27.80;99.90
21037;DHT22;10677;50.942;4.028;2023-06-19T12:51:03;28.00;99.90
21037;DHT22;10677;50.942;4.028;2023-06-19T12:53:29;28.20;99.90
21037;DHT22;10677;50.942;4.028;2023-06-19T12:55:59;28.40;99.90
21037;DHT22;10677;50.942;4.028;2023-06-19T12:58:25;28.40;99.90
21037;DHT22;10677;50.942;4.028;2023-06-19T13:00:52;28.20;99.90
21037;DHT22;10677;50.942;4.028;2023-06-19T13:03:18;28.00;99.90
21037;DHT22;10677;50.942;4.028;2023-06-19T13:05:45;28.00;99.90
21037;DHT22;10677;50.942;4.028;2023-06-19T13:08:11;28.30;99.90
21037;DHT22;10677;50.942;4.028;2023-06-19T13:10:36;28.40;99.90
21037;DHT22;10677;50.942;4.028;2023-06-19T13:13:03;28.30;99.90
21037;DHT22;10677;50.942;4.028;2023-06-19T13:15:31;28.10;99.90
21037;DHT22;10677;50.942;4.028;2023-06-19T13:17:59;28.60;99.90
21037;DHT22;10677;50.942;4.028;2023-06-19T13:20:25;29.70;99.90
21037;DHT22;10677;50.942;4.028;2023-06-19T13:22:50;30.00;99.90
21037;DHT22;10677;50.942;4.028;2023-06-19T13:25:17;30.80;99.90
21037;DHT22;10677;50.942;4.028;2023-06-19T13:27:42;32.40;99.90
21037;DHT22;10677;50.942;4.028;2023-06-19T13:30:09;33.70;99.90
21037;DHT22;10677;50.942;4.028;2023-06-19T13:32:34;34.60;99.90
21037;DHT22;10677;50.942;4.028;2023-06-19T13:35:00;36.70;99.90
21037;DHT22;10677;50.942;4.028;2023-06-19T13:37:26;37.70;99.90
21037;DHT22;10677;50.942;4.028;2023-06-19T13:39:52;38.00;99.90
21037;DHT22;10677;50.942;4.028;2023-06-19T13:42:17;38.20;98.20
21037;DHT22;10677;50.942;4.028;2023-06-19T13:44:43;39.10;96.30
21037;DHT22;10677;50.942;4.028;2023-06-19T13:47:10;39.70;94.00
21037;DHT22;10677;50.942;4.028;2023-06-19T13:49:36;38.30;93.80
21037;DHT22;10677;50.942;4.028;2023-06-19T13:52:02;38.20;93.80
21037;DHT22;10677;50.942;4.028;2023-06-19T13:54:28;37.70;93.40
21037;DHT22;10677;50.942;4.028;2023-06-19T13:56:54;35.70;94.80
21037;DHT22;10677;50.942;4.028;2023-06-19T13:59:20;36.00;95.30
21037;DHT22;10677;50.942;4.028;2023-06-19T14:01:46;36.50;94.00
21037;DHT22;10677;50.942;4.028;2023-06-19T14:04:11;37.90;93.90
21037;DHT22;10677;50.942;4.028;2023-06-19T14:06:37;39.00;92.20
21037;DHT22;10677;50.942;4.028;2023-06-19T14:09:06;39.80;90.50
21037;DHT22;10677;50.942;4.028;2023-06-19T14:11:31;40.80;90.20
21037;DHT22;10677;50.942;4.028;2023-06-19T14:13:58;40.40;89.80
21037;DHT22;10677;50.942;4.028;2023-06-19T14:16:23;40.60;88.30
21037;DHT22;10677;50.942;4.028;2023-06-19T14:18:49;39.80;89.10
21037;DHT22;10677;50.942;4.028;2023-06-19T14:21:15;38.60;89.70
21037;DHT22;10677;50.942;4.028;2023-06-19T14:23:40;38.40;90.40
21037;DHT22;10677;50.942;4.028;2023-06-19T14:26:11;37.00;90.70
21037;DHT22;10677;50.942;4.028;2023-06-19T14:28:38;37.70;91.10
21037;DHT22;10677;50.942;4.028;2023-06-19T14:31:07;36.50;91.50
21037;DHT22;10677;50.942;4.028;2023-06-19T14:33:32;35.30;92.60
21037;DHT22;10677;50.942;4.028;2023-06-19T14:36:00;35.60;92.80
21037;DHT22;10677;50.942;4.028;2023-06-19T14:38:27;35.80;92.60
21037;DHT22;10677;50.942;4.028;2023-06-19T14:40:57;36.00;92.40
21037;DHT22;10677;50.942;4.028;2023-06-19T14:43:23;36.50;92.40
21037;DHT22;10677;50.942;4.028;2023-06-19T14:45:49;38.00;90.60
21037;DHT22;10677;50.942;4.028;2023-06-19T14:48:18;37.00;89.80
21037;DHT22;10677;50.942;4.028;2023-06-19T14:50:44;36.50;90.50
21037;DHT22;10677;50.942;4.028;2023-06-19T14:53:10;36.70;90.40
21037;DHT22;10677;50.942;4.028;2023-06-19T14:55:35;34.90;92.00
21037;DHT22;10677;50.942;4.028;2023-06-19T14:58:01;34.60;93.00
21037;DHT22;10677;50.942;4.028;2023-06-19T15:00:27;36.10;91.50
21037;DHT22;10677;50.942;4.028;2023-06-19T15:02:52;37.60;90.90
21037;DHT22;10677;50.942;4.028;2023-06-19T15:05:18;38.30;90.30
21037;DHT22;10677;50.942;4.028;2023-06-19T15:07:43;39.40;87.90
21037;DHT22;10677;50.942;4.028;2023-06-19T15:10:09;39.70;87.40
21037;DHT22;10677;50.942;4.028;2023-06-19T15:12:36;41.20;85.10
21037;DHT22;10677;50.942;4.028;2023-06-19T15:15:03;40.70;83.70
21037;DHT22;10677;50.942;4.028;2023-06-19T15:17:28;40.00;84.10
21037;DHT22;10677;50.942;4.028;2023-06-19T15:19:54;41.10;83.80
21037;DHT22;10677;50.942;4.028;2023-06-19T15:22:20;41.10;81.20
21037;DHT22;10677;50.942;4.028;2023-06-19T15:24:45;41.20;80.50
21037;DHT22;10677;50.942;4.028;2023-06-19T15:27:11;41.70;80.10
21037;DHT22;10677;50.942;4.028;2023-06-19T15:29:37;42.10;79.00
21037;DHT22;10677;50.942;4.028;2023-06-19T15:32:04;40.60;78.80
21037;DHT22;10677;50.942;4.028;2023-06-19T15:34:30;39.90;80.60
21037;DHT22;10677;50.942;4.028;2023-06-19T15:36:55;40.10;80.80